createdAt,value
2023-04-13T00:00:36.596Z,59.20
2023-04-13T00:01:35.945Z,43.57
2023-04-13T00:02:36.073Z,50.42
2023-04-13T00:03:36.170Z,48.62
2023-04-13T00:04:35.914Z,42.40
2023-04-13T00:05:35.924Z,41.97
2023-04-13T00:06:35.899Z,42.67
2023-04-13T00:07:35.879Z,56.27
2023-04-13T00:08:35.888Z,48.97
2023-04-13T00:09:35.849Z,49.22
2023-04-13T00:10:36.603Z,43.50
2023-04-13T00:11:35.839Z,44.05
2023-04-13T00:12:35.846Z,45.00
2023-04-13T00:13:35.811Z,56.41
2023-04-13T00:14:35.837Z,43.24
2023-04-13T00:15:35.813Z,42.31
2023-04-13T00:16:35.837Z,49.41
2023-04-13T00:17:35.818Z,42.26
2023-04-13T00:18:35.791Z,48.32
2023-04-13T00:19:35.806Z,41.74
2023-04-13T00:20:35.810Z,42.46
2023-04-13T00:21:35.772Z,49.49
2023-04-13T00:22:35.758Z,45.08
2023-04-13T00:23:35.775Z,50.42
2023-04-13T00:24:35.774Z,49.37
2023-04-13T00:25:35.757Z,41.85
2023-04-13T00:26:35.700Z,42.42
2023-04-13T00:27:36.721Z,45.77
2023-04-13T00:28:35.777Z,42.55
2023-04-13T00:29:35.709Z,47.76
2023-04-13T00:30:35.733Z,42.54
2023-04-13T00:31:35.675Z,47.37
2023-04-13T00:32:35.708Z,49.74
2023-04-13T00:33:35.681Z,42.11
2023-04-13T00:34:35.662Z,43.09
2023-04-13T00:35:35.709Z,48.84
2023-04-13T00:36:35.666Z,41.95
2023-04-13T00:37:35.643Z,42.89
2023-04-13T00:38:35.629Z,50.32
2023-04-13T00:39:35.634Z,51.42
2023-04-13T00:40:35.636Z,51.86
2023-04-13T00:41:35.626Z,48.76
2023-04-13T00:42:35.605Z,44.32
2023-04-13T00:43:35.628Z,50.55
2023-04-13T00:44:35.609Z,64.46
2023-04-13T00:45:35.563Z,54.47
2023-04-13T00:46:35.633Z,55.52
2023-04-13T00:47:35.660Z,44.91
2023-04-13T00:48:35.565Z,61.29
2023-04-13T00:49:35.597Z,56.17
2023-04-13T00:50:35.551Z,53.51
2023-04-13T00:51:36.056Z,56.03
2023-04-13T00:52:35.522Z,49.53
2023-04-13T00:53:35.539Z,50.10
2023-04-13T00:54:35.520Z,50.10
2023-04-13T00:55:35.505Z,44.56
2023-04-13T00:56:35.484Z,61.03
2023-04-13T00:57:35.529Z,50.15
2023-04-13T00:58:35.473Z,47.42
2023-04-13T00:59:35.496Z,50.48
2023-04-13T01:00:35.522Z,43.73
2023-04-13T01:01:35.468Z,49.60
2023-04-13T01:02:35.531Z,56.87
2023-04-13T01:03:35.511Z,48.30
2023-04-13T01:04:35.479Z,41.77
2023-04-13T01:05:35.462Z,41.81
2023-04-13T01:06:35.443Z,42.30
2023-04-13T01:07:35.446Z,50.51
2023-04-13T01:08:35.390Z,48.91
2023-04-13T01:09:35.414Z,43.59
2023-04-13T01:10:35.380Z,50.37
2023-04-13T01:11:35.402Z,49.64
2023-04-13T01:12:35.364Z,42.70
2023-04-13T01:13:35.356Z,50.52
2023-04-13T01:14:35.352Z,52.02
2023-04-13T01:15:35.386Z,48.86
2023-04-13T01:16:35.356Z,52.62
2023-04-13T01:17:35.359Z,56.63
2023-04-13T01:18:35.317Z,53.39
2023-04-13T01:19:35.311Z,43.77
2023-04-13T01:20:36.121Z,43.67
2023-04-13T01:21:35.320Z,48.79
2023-04-13T01:22:35.315Z,47.90
2023-04-13T01:23:35.289Z,49.03
2023-04-13T01:24:35.273Z,45.51
2023-04-13T01:25:35.268Z,49.62
2023-04-13T01:26:35.336Z,48.59
2023-04-13T01:27:35.251Z,42.35
2023-04-13T01:28:35.241Z,50.25
2023-04-13T01:29:35.259Z,51.29
2023-04-13T01:30:35.275Z,50.15
2023-04-13T01:31:35.392Z,42.59
2023-04-13T01:32:35.252Z,48.39
2023-04-13T01:33:35.234Z,56.74
2023-04-13T01:34:35.191Z,46.34
2023-04-13T01:35:35.980Z,43.00
2023-04-13T01:36:36.097Z,42.49
2023-04-13T01:37:35.200Z,41.87
2023-04-13T01:38:35.165Z,42.48
2023-04-13T01:39:35.175Z,50.82
2023-04-13T01:40:35.229Z,50.62
2023-04-13T01:41:35.171Z,41.92
2023-04-13T01:42:36.175Z,41.70
2023-04-13T01:43:35.130Z,41.39
2023-04-13T01:44:35.120Z,42.15
2023-04-13T01:45:35.113Z,48.34
2023-04-13T01:46:35.121Z,43.75
2023-04-13T01:47:35.149Z,49.62
2023-04-13T01:48:35.091Z,52.17
2023-04-13T01:49:35.085Z,42.66
2023-04-13T01:50:35.072Z,43.28
2023-04-13T01:51:35.068Z,50.16
2023-04-13T01:52:35.093Z,45.03
2023-04-13T01:53:35.044Z,53.56
2023-04-13T01:54:35.044Z,42.94
2023-04-13T01:55:35.047Z,43.70
2023-04-13T01:56:35.036Z,52.28
2023-04-13T01:57:35.054Z,49.25
2023-04-13T01:58:35.042Z,44.26
2023-04-13T01:59:35.032Z,41.57
2023-04-13T02:00:35.060Z,41.84
2023-04-13T02:01:35.065Z,43.00
2023-04-13T02:02:35.150Z,55.84
2023-04-13T02:03:35.051Z,42.12
2023-04-13T02:04:34.974Z,42.16
2023-04-13T02:05:34.955Z,54.89
2023-04-13T02:06:34.998Z,48.88
2023-04-13T02:07:34.946Z,41.73
2023-04-13T02:08:34.934Z,42.45
2023-04-13T02:09:34.941Z,41.90
2023-04-13T02:10:34.962Z,42.00
2023-04-13T02:11:34.930Z,43.00
2023-04-13T02:12:34.917Z,49.13
2023-04-13T02:13:34.899Z,42.68
2023-04-13T02:14:34.932Z,48.63
2023-04-13T02:15:34.906Z,48.08
2023-04-13T02:16:34.916Z,49.73
2023-04-13T02:17:34.897Z,42.01
2023-04-13T02:18:34.878Z,43.70
2023-04-13T02:19:34.917Z,48.05
2023-04-13T02:20:34.855Z,41.92
2023-04-13T02:21:34.825Z,43.00
2023-04-13T02:22:34.833Z,52.55
2023-04-13T02:23:34.828Z,45.87
2023-04-13T02:24:34.830Z,51.41
2023-04-13T02:25:34.824Z,50.81
2023-04-13T02:26:34.797Z,52.96
2023-04-13T02:27:34.807Z,48.26
2023-04-13T02:28:34.784Z,41.67
2023-04-13T02:29:34.797Z,54.59
2023-04-13T02:30:35.150Z,59.29
2023-04-13T02:31:34.838Z,49.31
2023-04-13T02:32:34.800Z,41.84
2023-04-13T02:33:34.734Z,41.67
2023-04-13T02:34:35.738Z,41.77
2023-04-13T02:35:35.678Z,49.92
2023-04-13T02:36:36.581Z,50.02
2023-04-13T02:37:34.735Z,51.40
2023-04-13T02:38:34.811Z,48.30
2023-04-13T02:39:34.724Z,66.87
2023-04-13T02:40:34.733Z,50.30
2023-04-13T02:41:34.712Z,42.12
2023-04-13T02:42:34.693Z,41.88
2023-04-13T02:43:34.724Z,41.77
2023-04-13T02:44:34.670Z,50.77
2023-04-13T02:45:34.680Z,46.71
2023-04-13T02:46:34.671Z,45.86
2023-04-13T02:47:34.688Z,51.13
2023-04-13T02:48:34.679Z,52.01
2023-04-13T02:49:34.628Z,53.23
2023-04-13T02:50:34.607Z,58.87
2023-04-13T02:51:34.656Z,51.38
2023-04-13T02:52:34.573Z,49.07
2023-04-13T02:53:34.625Z,57.37
2023-04-13T02:54:34.561Z,47.98
2023-04-13T02:55:34.567Z,51.08
2023-04-13T02:56:34.743Z,52.53
2023-04-13T02:57:34.591Z,47.80
2023-04-13T02:58:34.611Z,63.15
2023-04-13T02:59:34.577Z,57.74
2023-04-13T03:00:34.568Z,42.87
2023-04-13T03:01:34.590Z,53.29
2023-04-13T03:02:34.697Z,56.57
2023-04-13T03:03:34.577Z,48.29
2023-04-13T03:04:34.560Z,57.41
2023-04-13T03:05:35.069Z,60.15
2023-04-13T03:06:34.486Z,52.95
2023-04-13T03:07:34.511Z,51.42
2023-04-13T03:08:34.481Z,50.50
2023-04-13T03:09:34.522Z,55.53
2023-04-13T03:10:34.458Z,52.47
2023-04-13T03:11:34.519Z,57.58
2023-04-13T03:12:34.443Z,60.42
2023-04-13T03:13:34.448Z,66.31
2023-04-13T03:14:34.415Z,63.57
2023-04-13T03:15:34.456Z,60.37
2023-04-13T03:16:35.466Z,44.21
2023-04-13T03:17:34.419Z,58.99
2023-04-13T03:18:34.440Z,64.61
2023-04-13T03:19:34.428Z,57.26
2023-04-13T03:20:34.400Z,63.57
2023-04-13T03:21:34.393Z,49.63
2023-04-13T03:22:34.363Z,47.45
2023-04-13T03:23:35.376Z,63.29
2023-04-13T03:24:34.360Z,62.72
2023-04-13T03:25:34.395Z,50.33
2023-04-13T03:26:34.351Z,67.44
2023-04-13T03:27:34.356Z,65.71
2023-04-13T03:28:34.370Z,63.72
2023-04-13T03:29:34.306Z,57.00
2023-04-13T03:30:34.332Z,57.91
2023-04-13T03:31:34.364Z,65.40
2023-04-13T03:32:35.026Z,62.36
2023-04-13T03:33:34.315Z,65.27
2023-04-13T03:34:34.285Z,59.02
2023-04-13T03:35:34.265Z,57.76
2023-04-13T03:36:34.272Z,64.82
2023-04-13T03:37:34.299Z,62.38
2023-04-13T03:38:34.247Z,61.30
2023-04-13T03:39:34.228Z,69.90
2023-04-13T03:40:35.117Z,66.47
2023-04-13T03:41:34.279Z,66.63
2023-04-13T03:42:34.238Z,62.91
2023-04-13T03:43:34.195Z,65.08
2023-04-13T03:44:35.266Z,66.14
2023-04-13T03:45:34.201Z,63.16
2023-04-13T03:46:34.230Z,65.38
2023-04-13T04:03:49.918Z,61.88
2023-04-13T04:04:49.882Z,64.80
2023-04-13T04:05:49.811Z,66.55
2023-04-13T04:06:49.841Z,68.04
2023-04-13T04:07:49.803Z,53.87
2023-04-13T04:08:49.888Z,58.60
2023-04-13T04:09:50.921Z,62.08
2023-04-13T04:10:50.907Z,65.06
2023-04-13T04:11:50.970Z,62.06
2023-04-13T04:12:50.896Z,58.78
2023-04-13T04:13:50.951Z,70.13
2023-04-13T04:14:50.932Z,55.76
2023-04-13T04:15:50.932Z,68.43
2023-04-13T04:16:50.931Z,66.98
2023-04-13T04:17:50.929Z,72.83
2023-04-13T04:18:50.895Z,61.98
2023-04-13T04:19:50.864Z,65.69
2023-04-13T04:20:50.838Z,69.98
2023-04-13T04:21:50.817Z,66.42
2023-04-13T04:22:51.517Z,64.56
2023-04-13T04:23:50.843Z,66.51
2023-04-13T04:24:50.823Z,61.74
2023-04-13T04:25:50.856Z,62.16
2023-04-13T04:26:50.856Z,66.04
2023-04-13T04:27:50.785Z,71.66
2023-04-13T04:28:50.822Z,71.02
2023-04-13T04:29:50.805Z,70.20
2023-04-13T04:30:50.746Z,68.06
2023-04-13T04:31:50.834Z,60.85
2023-04-13T04:32:50.785Z,70.05
2023-04-13T04:33:50.725Z,69.06
2023-04-13T04:34:50.727Z,67.24
2023-04-13T04:35:50.726Z,71.99
2023-04-13T04:36:50.715Z,66.24
2023-04-13T04:37:50.712Z,63.54
2023-04-13T04:38:50.707Z,63.00
2023-04-13T04:39:50.685Z,69.03
2023-04-13T04:40:50.727Z,72.77
2023-04-13T04:41:50.665Z,71.64
2023-04-13T04:42:50.674Z,63.83
2023-04-13T04:43:51.551Z,70.73
2023-04-13T04:44:51.663Z,70.69
2023-04-13T04:45:50.703Z,71.74
2023-04-13T04:46:50.635Z,66.96
2023-04-13T04:47:50.736Z,73.98
2023-04-13T04:48:50.647Z,66.37
2023-04-13T04:49:50.617Z,71.26
2023-04-13T04:50:50.589Z,63.18
2023-04-13T04:51:50.625Z,69.68
2023-04-13T04:52:50.589Z,60.65
2023-04-13T04:53:50.581Z,68.19
2023-04-13T04:54:50.616Z,70.56
2023-04-13T04:55:50.583Z,69.44
2023-04-13T04:56:50.582Z,70.36
2023-04-13T04:57:50.579Z,69.99
2023-04-13T04:58:50.558Z,64.21
2023-04-13T04:59:50.546Z,70.46
2023-04-13T05:00:50.571Z,65.29
2023-04-13T05:01:50.595Z,71.39
2023-04-13T05:02:50.629Z,64.28
2023-04-13T05:03:50.508Z,68.98
2023-04-13T05:04:50.519Z,64.22
2023-04-13T05:05:50.488Z,71.50
2023-04-13T05:07:22.487Z,69.85
2023-04-13T05:07:50.494Z,59.72
2023-04-13T05:08:50.458Z,69.37
2023-04-13T05:09:51.057Z,72.68
2023-04-13T05:10:50.519Z,72.26
2023-04-13T05:11:50.444Z,67.85
2023-04-13T05:12:50.462Z,70.15
2023-04-13T05:13:50.452Z,72.60
2023-04-13T05:14:50.429Z,70.83
2023-04-13T05:15:50.451Z,67.23
2023-04-13T05:16:50.403Z,67.59
2023-04-13T05:17:51.417Z,69.63
2023-04-13T05:18:50.380Z,69.94
2023-04-13T05:19:50.399Z,70.13
2023-04-13T05:20:50.389Z,58.71
2023-04-13T05:21:50.371Z,66.41
2023-04-13T05:22:50.350Z,70.91
2023-04-13T05:23:50.388Z,68.17
2023-04-13T05:24:50.357Z,67.56
2023-04-13T05:25:50.348Z,70.77
2023-04-13T05:26:50.361Z,72.07
2023-04-13T05:27:50.334Z,66.32
2023-04-13T05:28:50.350Z,64.67
2023-04-13T05:29:50.301Z,65.41
2023-04-13T05:30:50.362Z,69.80
2023-04-13T05:31:50.318Z,69.18
2023-04-13T05:32:50.320Z,64.12
2023-04-13T05:33:50.274Z,70.74
2023-04-13T05:34:50.284Z,66.68
2023-04-13T05:35:50.268Z,67.57
2023-04-13T05:36:50.303Z,69.19
2023-04-13T05:37:50.233Z,70.35
2023-04-13T05:38:50.241Z,72.14
2023-04-13T05:39:50.247Z,69.99
2023-04-13T05:40:50.268Z,66.44
2023-04-13T05:41:50.227Z,70.61
2023-04-13T05:42:50.263Z,68.96
2023-04-13T05:43:50.212Z,68.30
2023-04-13T05:44:50.290Z,70.66
2023-04-13T05:45:50.229Z,69.49
2023-04-13T05:46:50.224Z,69.79
2023-04-13T05:47:50.233Z,64.12
2023-04-13T05:48:50.171Z,66.86
2023-04-13T05:49:50.178Z,61.99
2023-04-13T05:50:50.178Z,70.83
2023-04-13T05:51:50.136Z,61.55
2023-04-13T05:52:50.198Z,64.97
2023-04-13T05:53:50.151Z,70.35
2023-04-13T05:54:50.157Z,71.17
2023-04-13T05:55:50.117Z,67.03
2023-04-13T05:56:50.116Z,66.82
2023-04-13T05:57:50.084Z,63.79
2023-04-13T05:58:50.135Z,70.20
2023-04-13T05:59:50.071Z,64.76
2023-04-13T06:00:50.054Z,67.30
2023-04-13T06:01:52.139Z,70.58
2023-04-13T06:02:51.150Z,61.72
2023-04-13T06:03:50.238Z,65.06
2023-04-13T06:04:50.162Z,64.67
2023-04-13T06:05:50.069Z,60.94
2023-04-13T06:06:50.049Z,65.23
2023-04-13T06:07:50.018Z,69.32
2023-04-13T06:08:50.002Z,66.27
2023-04-13T06:09:49.978Z,66.19
2023-04-13T06:10:50.999Z,68.65
2023-04-13T06:11:49.972Z,66.22
2023-04-13T06:13:21.913Z,67.01
2023-04-13T06:13:50.033Z,67.30
2023-04-13T06:14:50.960Z,55.44
2023-04-13T06:15:49.954Z,64.98
2023-04-13T06:16:50.023Z,66.21
2023-04-13T06:17:50.273Z,64.23
2023-04-13T06:18:49.921Z,69.26
2023-04-13T06:19:49.902Z,65.66
2023-04-13T06:20:49.903Z,65.99
2023-04-13T06:21:49.887Z,60.55
2023-04-13T06:22:49.937Z,70.02
2023-04-13T06:23:49.908Z,66.21
2023-04-13T06:24:49.889Z,69.41
2023-04-13T06:25:49.880Z,65.15
2023-04-13T06:26:49.883Z,65.89
2023-04-13T06:27:50.086Z,65.84
2023-04-13T06:28:49.911Z,66.56
2023-04-13T06:29:49.870Z,66.41
2023-04-13T06:30:49.847Z,65.77
2023-04-13T06:31:49.878Z,68.05
2023-04-13T06:32:49.823Z,66.45
2023-04-13T06:33:49.842Z,64.51
2023-04-13T06:34:49.813Z,66.19
2023-04-13T06:35:49.777Z,57.89
2023-04-13T06:36:49.850Z,67.90
2023-04-13T06:37:49.798Z,67.85
2023-04-13T06:38:49.801Z,67.90
2023-04-13T06:39:49.805Z,65.00
2023-04-13T06:40:49.752Z,63.09
2023-04-13T06:41:49.750Z,63.26
2023-04-13T06:42:49.723Z,63.55
2023-04-13T06:43:49.706Z,70.17
2023-04-13T06:44:49.742Z,60.87
2023-04-13T06:45:49.738Z,67.44
2023-04-13T06:46:49.792Z,69.62
2023-04-13T06:47:49.754Z,65.44
2023-04-13T06:48:49.775Z,69.90
2023-04-13T06:49:49.670Z,71.64
2023-04-13T06:50:49.697Z,67.24
2023-04-13T06:51:49.659Z,57.80
2023-04-13T06:52:49.662Z,70.42
2023-04-13T06:53:49.642Z,64.36
2023-04-13T06:54:49.699Z,63.37
2023-04-13T06:55:49.634Z,62.02
2023-04-13T06:56:49.671Z,64.56
2023-04-13T06:57:49.598Z,64.33
2023-04-13T06:58:49.620Z,66.09
2023-04-13T06:59:49.615Z,65.56
2023-04-13T07:00:49.633Z,66.96
2023-04-13T07:01:49.672Z,62.87
2023-04-13T07:02:49.672Z,67.97
2023-04-13T07:03:49.654Z,65.18
2023-04-13T07:04:49.638Z,69.30
2023-04-13T07:05:49.551Z,65.70
2023-04-13T07:06:49.591Z,68.09
2023-04-13T07:07:49.555Z,64.40
2023-04-13T07:08:49.531Z,68.69
2023-04-13T07:09:49.595Z,57.78
2023-04-13T07:10:49.552Z,63.83
2023-04-13T07:11:50.091Z,69.74
2023-04-13T07:12:49.542Z,62.21
2023-04-13T07:13:49.505Z,69.39
2023-04-13T07:14:49.564Z,64.14
2023-04-13T07:15:49.507Z,66.51
2023-04-13T07:16:49.497Z,68.48
2023-04-13T07:17:49.527Z,67.42
2023-04-13T07:18:50.118Z,63.43
2023-04-13T07:19:49.451Z,67.11
2023-04-13T07:20:49.458Z,71.87
2023-04-13T07:21:49.463Z,62.35
2023-04-13T07:22:49.419Z,70.74
2023-04-13T07:23:49.426Z,65.68
2023-04-13T07:24:49.414Z,66.22
2023-04-13T07:25:49.417Z,61.54
2023-04-13T07:26:49.411Z,67.03
2023-04-13T07:27:49.403Z,67.26
2023-04-13T07:28:49.465Z,72.69
2023-04-13T07:29:49.371Z,59.59
2023-04-13T07:30:49.400Z,66.71
2023-04-13T07:31:49.427Z,64.74
2023-04-13T07:32:49.419Z,65.67
2023-04-13T07:33:49.347Z,69.28
2023-04-13T07:34:49.348Z,66.65
2023-04-13T07:35:49.366Z,70.64
2023-04-13T07:36:49.326Z,69.20
2023-04-13T07:37:50.628Z,64.26
2023-04-13T07:38:49.302Z,66.24
2023-04-13T07:39:49.372Z,65.38
2023-04-13T07:40:49.316Z,64.64
2023-04-13T07:41:49.286Z,65.34
2023-04-13T07:42:49.278Z,66.24
2023-04-13T07:43:49.298Z,69.23
2023-04-13T07:44:49.347Z,73.51
2023-04-13T07:45:49.283Z,71.76
2023-04-13T07:46:49.306Z,71.37
2023-04-13T07:47:49.295Z,70.34
2023-04-13T07:48:49.270Z,64.92
2023-04-13T07:49:49.221Z,64.69
2023-04-13T07:50:49.222Z,65.28
2023-04-13T07:51:49.199Z,71.73
2023-04-13T07:52:49.222Z,63.95
2023-04-13T07:53:49.204Z,71.50
2023-04-13T07:54:49.189Z,69.47
2023-04-13T07:55:49.194Z,70.41
2023-04-13T07:56:49.275Z,70.55
2023-04-13T07:57:49.162Z,62.57
2023-04-13T07:58:49.145Z,70.46
2023-04-13T07:59:49.165Z,66.97
2023-04-13T08:00:49.109Z,66.85
2023-04-13T08:01:49.177Z,67.09
2023-04-13T08:02:49.349Z,68.88
2023-04-13T08:03:49.202Z,66.14
2023-04-13T08:04:49.275Z,70.57
2023-04-13T08:05:49.085Z,64.32
2023-04-13T08:06:49.104Z,67.49
2023-04-13T08:07:49.067Z,68.00
2023-04-13T08:08:49.078Z,61.36
2023-04-13T08:09:49.069Z,69.81
2023-04-13T08:10:49.047Z,68.62
2023-04-13T08:11:49.058Z,67.04
2023-04-13T08:12:49.076Z,62.61
2023-04-13T08:13:49.041Z,66.18
2023-04-13T08:14:49.057Z,69.23
2023-04-13T08:15:50.034Z,68.10
2023-04-13T08:16:49.064Z,68.24
2023-04-13T08:17:49.109Z,63.99
2023-04-13T08:18:49.042Z,67.08
2023-04-13T08:19:48.980Z,67.17
2023-04-13T08:20:48.971Z,67.81
2023-04-13T08:21:48.993Z,69.39
2023-04-13T08:22:48.981Z,68.06
2023-04-13T08:23:48.951Z,69.62
2023-04-13T08:24:48.935Z,69.70
2023-04-13T08:25:48.950Z,69.49
2023-04-13T08:26:48.924Z,67.44
2023-04-13T08:27:48.971Z,68.17
2023-04-13T08:28:49.076Z,55.82
2023-04-13T08:29:49.176Z,65.56
2023-04-13T08:30:48.883Z,67.00
2023-04-13T08:31:48.943Z,70.21
2023-04-13T08:32:48.958Z,67.05
2023-04-13T08:33:48.964Z,67.42
2023-04-13T08:34:48.962Z,69.91
2023-04-13T08:35:48.889Z,65.75
2023-04-13T08:36:48.858Z,69.99
2023-04-13T08:37:48.868Z,64.71
2023-04-13T08:38:49.854Z,64.44
2023-04-13T08:39:48.852Z,68.63
2023-04-13T08:40:50.096Z,67.82
2023-04-13T08:41:49.842Z,68.48
2023-04-13T08:42:48.815Z,66.69
2023-04-13T08:43:48.837Z,68.17
2023-04-13T08:44:48.855Z,67.67
2023-04-13T08:45:48.806Z,68.87
2023-04-13T08:46:51.343Z,66.51
2023-04-13T08:47:48.789Z,72.68
2023-04-13T08:48:53.893Z,64.30
2023-04-13T08:49:50.755Z,69.29
2023-04-13T08:50:48.710Z,66.99
2023-04-13T08:51:48.715Z,62.36
2023-04-13T08:52:48.718Z,66.75
2023-04-13T08:53:48.743Z,67.54
2023-04-13T08:54:48.698Z,68.04
2023-04-13T08:55:48.695Z,68.20
2023-04-13T08:56:48.674Z,67.07
2023-04-13T08:57:51.082Z,66.48
2023-04-13T08:58:48.692Z,68.74
2023-04-13T08:59:48.679Z,63.99
2023-04-13T09:00:48.658Z,66.50
2023-04-13T09:01:48.805Z,65.44
2023-04-13T09:03:00.376Z,68.33
2023-04-13T09:03:50.877Z,67.27
2023-04-13T09:04:48.820Z,68.98
2023-04-13T09:05:48.716Z,68.51
2023-04-13T09:06:48.680Z,68.73
2023-04-13T09:07:48.646Z,64.55
2023-04-13T09:08:48.585Z,67.01
2023-04-13T09:09:48.612Z,69.01
2023-04-13T09:10:48.572Z,68.37
2023-04-13T09:11:50.837Z,68.36
2023-04-13T09:12:49.550Z,64.23
2023-04-13T09:13:48.556Z,61.53
2023-04-13T09:14:48.542Z,66.26
2023-04-13T09:15:48.525Z,67.85
2023-04-13T09:16:48.581Z,66.82
2023-04-13T09:17:48.573Z,70.28
2023-04-13T09:18:48.552Z,65.17
2023-04-13T09:19:48.531Z,68.42
2023-04-13T09:20:49.196Z,70.05
2023-04-13T09:21:48.543Z,68.16
2023-04-13T09:22:48.502Z,66.02
2023-04-13T09:23:48.517Z,63.06
2023-04-13T09:24:48.498Z,67.46
2023-04-13T09:25:48.512Z,66.75
2023-04-13T09:26:48.520Z,68.08
2023-04-13T09:27:48.501Z,67.15
2023-04-13T09:28:48.628Z,66.81
2023-04-13T09:29:48.495Z,68.37
2023-04-13T09:30:48.470Z,64.68
2023-04-13T09:31:48.432Z,66.84
2023-04-13T09:32:48.472Z,68.30
2023-04-13T09:33:48.427Z,64.36
2023-04-13T09:34:48.404Z,62.31
2023-04-13T09:35:48.416Z,65.73
2023-04-13T09:36:55.011Z,66.01
2023-04-13T09:37:51.179Z,65.72
2023-04-13T09:38:48.407Z,66.64
2023-04-13T09:39:48.359Z,61.35
2023-04-13T09:40:48.366Z,63.37
2023-04-13T09:41:48.368Z,70.35
2023-04-13T09:42:49.166Z,64.85
2023-04-13T09:43:48.336Z,65.38
2023-04-13T09:44:48.387Z,62.47
2023-04-13T09:45:48.396Z,65.06
2023-04-13T09:46:48.397Z,69.58
2023-04-13T09:47:49.047Z,66.28
2023-04-13T09:48:48.294Z,68.57
2023-04-13T09:49:48.298Z,70.79
2023-04-13T09:50:48.253Z,64.12
2023-04-13T09:51:48.274Z,66.85
2023-04-13T09:52:48.269Z,64.76
2023-04-13T09:53:48.297Z,69.60
2023-04-13T09:54:48.818Z,64.76
2023-04-13T09:55:49.244Z,67.74
2023-04-13T09:56:48.281Z,68.77
2023-04-13T09:57:48.294Z,65.39
2023-04-13T09:58:48.217Z,64.66
2023-04-13T09:59:48.194Z,69.48
2023-04-13T10:00:48.196Z,67.68
2023-04-13T10:01:48.238Z,65.25
2023-04-13T10:02:48.326Z,66.37
2023-04-13T10:03:48.294Z,67.98
2023-04-13T10:04:48.240Z,63.12
2023-04-13T10:05:58.900Z,69.08
2023-04-13T10:06:50.143Z,64.89
2023-04-13T10:07:48.168Z,69.41
2023-04-13T10:08:48.169Z,65.95
2023-04-13T10:09:48.176Z,67.61
2023-04-13T10:10:48.722Z,67.24
2023-04-13T10:11:48.100Z,67.17
2023-04-13T10:12:48.105Z,71.47
2023-04-13T10:13:48.086Z,68.51
2023-04-13T10:14:48.102Z,65.91
2023-04-13T10:15:48.268Z,66.76
2023-04-13T10:16:48.122Z,67.35
2023-04-13T10:17:48.183Z,66.74
2023-04-13T10:18:48.098Z,65.77
2023-04-13T10:19:48.096Z,67.78
2023-04-13T10:20:48.071Z,66.86
2023-04-13T10:21:48.045Z,68.29
2023-04-13T10:22:48.007Z,59.88
2023-04-13T10:23:49.166Z,67.88
2023-04-13T10:24:48.004Z,67.39
2023-04-13T10:25:48.029Z,68.77
2023-04-13T10:26:48.020Z,67.80
2023-04-13T10:27:48.006Z,65.30
2023-04-13T10:28:47.982Z,67.23
2023-04-13T10:29:47.978Z,66.99
2023-04-13T10:30:47.957Z,70.01
2023-04-13T10:31:47.986Z,68.96
2023-04-13T10:32:48.033Z,66.95
2023-04-13T10:33:47.973Z,68.55
2023-04-13T10:34:47.976Z,61.49
2023-04-13T10:35:47.933Z,66.64
2023-04-13T10:36:47.899Z,62.94
2023-04-13T10:37:47.935Z,66.52
2023-04-13T10:38:47.899Z,64.06
2023-04-13T10:39:47.878Z,67.57
2023-04-13T10:40:47.857Z,62.44
2023-04-13T10:41:47.862Z,67.64
2023-04-13T10:42:51.795Z,68.74
2023-04-13T10:43:48.867Z,68.08
2023-04-13T10:44:47.824Z,67.89
2023-04-13T10:45:47.835Z,68.78
2023-04-13T10:46:47.862Z,65.93
2023-04-13T10:47:47.885Z,67.90
2023-04-13T10:48:47.820Z,66.03
2023-04-13T10:49:47.815Z,62.93
2023-04-13T10:50:47.789Z,68.27
2023-04-13T10:51:47.814Z,65.52
2023-04-13T10:52:47.800Z,65.24
2023-04-13T10:53:47.847Z,68.56
2023-04-13T10:54:47.753Z,66.79
2023-04-13T10:55:47.750Z,65.42
2023-04-13T10:56:47.757Z,65.98
2023-04-13T10:57:47.754Z,64.54
2023-04-13T10:58:47.767Z,70.20
2023-04-13T11:00:48.773Z,65.84
2023-04-13T11:01:47.814Z,66.11
2023-04-13T11:02:47.898Z,65.41
2023-04-13T11:04:03.201Z,65.82
2023-04-13T11:04:49.715Z,63.64
2023-04-13T11:05:47.764Z,64.06
2023-04-13T11:06:47.697Z,62.42
2023-04-13T11:07:47.679Z,68.68
2023-04-13T11:08:48.517Z,65.87
2023-04-13T11:09:48.733Z,67.80
2023-04-13T11:10:47.640Z,65.30
2023-04-13T11:11:47.659Z,68.15
2023-04-13T11:12:47.655Z,64.94
2023-04-13T11:13:47.663Z,59.76
2023-04-13T11:14:47.635Z,64.19
2023-04-13T11:15:47.596Z,66.72
2023-04-13T11:16:47.655Z,64.43
2023-04-13T11:17:47.619Z,66.98
2023-04-13T11:18:47.579Z,64.08
2023-04-13T11:19:49.944Z,66.87
2023-04-13T11:20:48.598Z,70.21
2023-04-13T11:22:20.110Z,68.78
2023-04-13T11:22:47.768Z,56.90
2023-04-13T11:23:48.381Z,68.51
2023-04-13T11:24:47.559Z,67.60
2023-04-13T11:25:47.543Z,60.01
2023-04-13T11:26:47.561Z,65.56
2023-04-13T11:27:47.551Z,64.72
2023-04-13T11:28:47.501Z,67.36
2023-04-13T11:29:47.518Z,65.61
2023-04-13T11:30:47.477Z,65.94
2023-04-13T11:31:47.566Z,72.53
2023-04-13T11:32:47.562Z,68.72
2023-04-13T11:33:47.456Z,62.51
2023-04-13T11:34:47.459Z,64.83
2023-04-13T11:35:49.812Z,62.44
2023-04-13T11:36:48.435Z,70.31
2023-04-13T11:37:47.503Z,69.18
2023-04-13T11:38:47.740Z,67.53
2023-04-13T11:39:47.411Z,65.04
2023-04-13T11:40:48.214Z,71.30
2023-04-13T11:41:47.422Z,61.81
2023-04-13T11:42:47.384Z,68.46
2023-04-13T11:43:47.385Z,66.01
2023-04-13T11:44:47.406Z,66.40
2023-04-13T11:45:47.416Z,67.11
2023-04-13T11:46:47.512Z,67.58
2023-04-13T11:47:47.653Z,67.81
2023-04-13T11:48:47.366Z,66.98
2023-04-13T11:49:47.344Z,70.24
2023-04-13T11:50:47.763Z,63.98
2023-04-13T11:51:47.375Z,71.61
2023-04-13T11:52:47.325Z,63.38
2023-04-13T11:53:47.304Z,66.74
2023-04-13T11:54:48.195Z,67.46
2023-04-13T11:55:53.462Z,68.21
2023-04-13T11:56:49.314Z,66.98
2023-04-13T11:57:48.301Z,66.28
2023-04-13T11:58:47.256Z,63.38
2023-04-13T11:59:47.289Z,62.24
2023-04-13T12:00:47.269Z,63.54
2023-04-13T12:01:50.266Z,66.57
2023-04-13T12:03:01.320Z,69.88
2023-04-13T12:04:48.570Z,72.80
2023-04-13T12:05:47.367Z,67.35
2023-04-13T12:06:47.542Z,67.16
2023-04-13T12:07:47.584Z,64.16
2023-04-13T12:08:57.514Z,68.72
2023-04-13T12:11:07.169Z,70.04
2023-04-13T12:12:53.200Z,70.92
2023-04-13T12:14:05.618Z,68.97
2023-04-13T12:15:03.029Z,69.30
2023-04-13T12:16:05.507Z,67.38
2023-04-13T12:17:04.080Z,60.32
2023-04-13T12:17:51.902Z,68.01
2023-04-13T12:18:50.043Z,62.34
2023-04-13T12:19:48.931Z,68.40
2023-04-13T12:20:47.476Z,70.83
2023-04-13T12:21:48.803Z,67.11
2023-04-13T12:23:49.367Z,63.05
2023-04-13T12:24:48.217Z,71.28
2023-04-13T12:25:47.547Z,67.54
2023-04-13T12:27:49.048Z,66.86
2023-04-13T12:28:47.718Z,68.58
2023-04-13T12:29:47.066Z,66.10
2023-04-13T12:30:47.087Z,67.14
2023-04-13T12:31:47.081Z,67.15
2023-04-13T12:32:47.083Z,64.07
2023-04-13T12:33:47.014Z,66.90
2023-04-13T12:34:47.047Z,66.71
2023-04-13T12:35:47.006Z,61.23
2023-04-13T12:36:47.042Z,65.56
2023-04-13T12:37:46.974Z,66.19
2023-04-13T12:38:46.981Z,68.17
2023-04-13T12:39:46.972Z,65.56
2023-04-13T12:40:46.977Z,66.27
2023-04-13T12:41:46.974Z,65.11
2023-04-13T12:42:46.932Z,71.11
2023-04-13T12:43:46.937Z,68.70
2023-04-13T12:44:46.936Z,69.13
2023-04-13T12:45:46.927Z,65.09
2023-04-13T12:46:46.961Z,69.95
2023-04-13T12:47:46.975Z,67.91
2023-04-13T12:48:46.952Z,69.75
2023-04-13T12:49:46.880Z,69.52
2023-04-13T12:50:46.993Z,67.19
2023-04-13T12:51:46.899Z,65.55
2023-04-13T12:52:46.935Z,68.97
2023-04-13T12:53:46.853Z,69.09
2023-04-13T12:54:46.848Z,61.51
2023-04-13T12:55:46.845Z,71.55
2023-04-13T12:56:46.840Z,67.30
2023-04-13T12:57:46.856Z,70.99
2023-04-13T12:58:46.841Z,72.00
2023-04-13T12:59:46.822Z,68.64
2023-04-13T13:00:46.844Z,70.62
2023-04-13T13:01:46.854Z,71.26
2023-04-13T13:02:46.809Z,69.33
2023-04-13T13:03:46.906Z,67.87
2023-04-13T13:04:46.780Z,67.66
2023-04-13T13:05:46.773Z,69.00
2023-04-13T13:06:46.784Z,70.33
2023-04-13T13:07:46.734Z,72.41
2023-04-13T13:08:46.751Z,69.84
2023-04-13T13:09:46.768Z,68.52
2023-04-13T13:10:46.731Z,70.07
2023-04-13T13:11:46.715Z,68.71
2023-04-13T13:12:46.736Z,75.36
2023-04-13T13:13:46.781Z,69.79
2023-04-13T13:14:46.683Z,69.10